sensor_id;sensor_type;location;lat;lon;timestamp;pressure;altitude;pressure_sealevel;temperature;humidity
76229;BME280;65021;53.174;18.160;2023-02-03T00:01:42;101726.14;;;-2.76;80.18
76229;BME280;65021;53.174;18.160;2023-02-03T00:04:09;101724.98;;;-2.75;80.41
76229;BME280;65021;53.174;18.160;2023-02-03T00:06:36;101723.11;;;-2.76;80.36
76229;BME280;65021;53.174;18.160;2023-02-03T00:09:02;101721.46;;;-2.78;80.66
76229;BME280;65021;53.174;18.160;2023-02-03T00:11:29;101723.15;;;-2.81;80.94
76229;BME280;65021;53.174;18.160;2023-02-03T00:13:56;101719.77;;;-2.83;81.09
76229;BME280;65021;53.174;18.160;2023-02-03T00:16:23;101716.58;;;-2.86;81.28
76229;BME280;65021;53.174;18.160;2023-02-03T00:18:49;101717.19;;;-2.89;81.41
76229;BME280;65021;53.174;18.160;2023-02-03T00:21:16;101715.30;;;-2.92;81.38
76229;BME280;65021;53.174;18.160;2023-02-03T00:23:43;101711.98;;;-2.93;80.91
76229;BME280;65021;53.174;18.160;2023-02-03T00:26:13;101705.50;;;-2.94;80.84
76229;BME280;65021;53.174;18.160;2023-02-03T00:28:40;101704.86;;;-2.93;80.87
76229;BME280;65021;53.174;18.160;2023-02-03T00:31:19;101699.83;;;-2.89;80.88
76229;BME280;65021;53.174;18.160;2023-02-03T00:33:47;101702.43;;;-2.86;80.80
76229;BME280;65021;53.174;18.160;2023-02-03T00:36:18;101702.55;;;-2.83;80.71
76229;BME280;65021;53.174;18.160;2023-02-03T00:38:44;101701.34;;;-2.80;80.53
76229;BME280;65021;53.174;18.160;2023-02-03T00:41:11;101700.23;;;-2.78;80.55
76229;BME280;65021;53.174;18.160;2023-02-03T00:43:38;101701.35;;;-2.76;80.68
76229;BME280;65021;53.174;18.160;2023-02-03T00:46:04;101699.77;;;-2.77;80.78
76229;BME280;65021;53.174;18.160;2023-02-03T00:48:31;101688.74;;;-2.79;80.91
76229;BME280;65021;53.174;18.160;2023-02-03T00:50:57;101684.64;;;-2.82;80.96
76229;BME280;65021;53.174;18.160;2023-02-03T00:53:24;101680.30;;;-2.86;80.92
76229;BME280;65021;53.174;18.160;2023-02-03T00:55:51;101673.59;;;-2.88;81.23
76229;BME280;65021;53.174;18.160;2023-02-03T00:58:17;101674.02;;;-2.87;81.23
76229;BME280;65021;53.174;18.160;2023-02-03T01:00:44;101675.89;;;-2.84;81.07
76229;BME280;65021;53.174;18.160;2023-02-03T01:03:10;101668.30;;;-2.80;81.13
76229;BME280;65021;53.174;18.160;2023-02-03T01:05:37;101666.15;;;-2.76;81.19
76229;BME280;65021;53.174;18.160;2023-02-03T01:08:04;101667.95;;;-2.72;81.17
76229;BME280;65021;53.174;18.160;2023-02-03T01:10:31;101672.04;;;-2.69;82.03
76229;BME280;65021;53.174;18.160;2023-02-03T01:12:57;101669.73;;;-2.68;81.93
76229;BME280;65021;53.174;18.160;2023-02-03T01:15:24;101672.13;;;-2.66;81.95
76229;BME280;65021;53.174;18.160;2023-02-03T01:17:51;101670.55;;;-2.67;81.91
76229;BME280;65021;53.174;18.160;2023-02-03T01:20:17;101672.44;;;-2.66;81.96
76229;BME280;65021;53.174;18.160;2023-02-03T01:22:51;101670.46;;;-2.61;82.04
76229;BME280;65021;53.174;18.160;2023-02-03T01:25:18;101662.58;;;-2.55;82.09
76229;BME280;65021;53.174;18.160;2023-02-03T01:27:44;101647.20;;;-2.49;81.83
76229;BME280;65021;53.174;18.160;2023-02-03T01:30:11;101644.45;;;-2.45;81.98
76229;BME280;65021;53.174;18.160;2023-02-03T01:32:38;101633.11;;;-2.42;81.78
76229;BME280;65021;53.174;18.160;2023-02-03T01:35:04;101626.59;;;-2.41;81.94
76229;BME280;65021;53.174;18.160;2023-02-03T01:37:31;101620.56;;;-2.40;82.20
76229;BME280;65021;53.174;18.160;2023-02-03T01:39:58;101617.66;;;-2.42;82.09
76229;BME280;65021;53.174;18.160;2023-02-03T01:42:24;101609.39;;;-2.43;81.98
76229;BME280;65021;53.174;18.160;2023-02-03T01:44:51;101607.00;;;-2.45;82.02
76229;BME280;65021;53.174;18.160;2023-02-03T01:47:56;101605.88;;;-2.46;82.15
76229;BME280;65021;53.174;18.160;2023-02-03T01:50:26;101596.13;;;-2.45;82.09
76229;BME280;65021;53.174;18.160;2023-02-03T01:52:59;101597.44;;;-2.41;82.12
76229;BME280;65021;53.174;18.160;2023-02-03T01:55:36;101607.05;;;-2.39;82.75
76229;BME280;65021;53.174;18.160;2023-02-03T01:58:11;101611.45;;;-2.36;82.57
76229;BME280;65021;53.174;18.160;2023-02-03T02:00:39;101611.42;;;-2.32;82.22
76229;BME280;65021;53.174;18.160;2023-02-03T02:03:07;101609.55;;;-2.26;82.18
76229;BME280;65021;53.174;18.160;2023-02-03T02:05:39;101595.93;;;-2.21;82.21
76229;BME280;65021;53.174;18.160;2023-02-03T02:08:09;101590.33;;;-2.18;82.16
76229;BME280;65021;53.174;18.160;2023-02-03T02:10:38;101583.94;;;-2.18;82.22
76229;BME280;65021;53.174;18.160;2023-02-03T02:13:05;101584.80;;;-2.17;82.25
76229;BME280;65021;53.174;18.160;2023-02-03T02:18:38;101561.54;;;-2.19;82.25
76229;BME280;65021;53.174;18.160;2023-02-03T02:23:57;101541.70;;;-2.20;82.14
76229;BME280;65021;53.174;18.160;2023-02-03T02:37:58;101512.20;;;-2.10;82.02
76229;BME280;65021;53.174;18.160;2023-02-03T02:40:38;101504.87;;;-2.09;82.04
76229;BME280;65021;53.174;18.160;2023-02-03T02:51:07;101495.54;;;-2.16;82.30
76229;BME280;65021;53.174;18.160;2023-02-03T02:53:39;101489.99;;;-2.19;82.34
76229;BME280;65021;53.174;18.160;2023-02-03T02:56:08;101489.33;;;-2.21;82.46
76229;BME280;65021;53.174;18.160;2023-02-03T02:58:38;101483.52;;;-2.23;82.54
76229;BME280;65021;53.174;18.160;2023-02-03T03:01:07;101487.45;;;-2.24;82.46
76229;BME280;65021;53.174;18.160;2023-02-03T03:03:34;101487.98;;;-2.26;82.55
76229;BME280;65021;53.174;18.160;2023-02-03T03:06:09;101488.95;;;-2.27;82.61
76229;BME280;65021;53.174;18.160;2023-02-03T03:08:41;101486.59;;;-2.24;82.54
76229;BME280;65021;53.174;18.160;2023-02-03T03:11:09;101491.02;;;-2.22;82.40
76229;BME280;65021;53.174;18.160;2023-02-03T03:13:41;101496.48;;;-2.18;82.40
76229;BME280;65021;53.174;18.160;2023-02-03T03:16:10;101491.44;;;-2.15;82.48
76229;BME280;65021;53.174;18.160;2023-02-03T03:19:11;101489.16;;;-2.10;82.33
76229;BME280;65021;53.174;18.160;2023-02-03T03:21:43;101485.45;;;-2.06;82.16
76229;BME280;65021;53.174;18.160;2023-02-03T03:24:17;101484.15;;;-2.04;82.28
76229;BME280;65021;53.174;18.160;2023-02-03T03:26:56;101477.58;;;-2.01;82.17
76229;BME280;65021;53.174;18.160;2023-02-03T03:29:34;101473.18;;;-1.97;82.31
76229;BME280;65021;53.174;18.160;2023-02-03T03:32:04;101472.71;;;-1.94;82.29
76229;BME280;65021;53.174;18.160;2023-02-03T03:34:32;101466.69;;;-1.92;82.08
76229;BME280;65021;53.174;18.160;2023-02-03T03:37:21;101463.64;;;-1.90;82.15
76229;BME280;65021;53.174;18.160;2023-02-03T03:39:58;101461.67;;;-1.92;82.20
76229;BME280;65021;53.174;18.160;2023-02-03T03:42:56;101455.21;;;-1.93;82.47
76229;BME280;65021;53.174;18.160;2023-02-03T03:45:34;101451.02;;;-1.97;82.53
76229;BME280;65021;53.174;18.160;2023-02-03T03:48:08;101449.34;;;-2.00;82.62
76229;BME280;65021;53.174;18.160;2023-02-03T03:50:42;101440.95;;;-2.04;82.81
76229;BME280;65021;53.174;18.160;2023-02-03T03:53:12;101434.20;;;-2.05;82.71
76229;BME280;65021;53.174;18.160;2023-02-03T03:55:46;101431.86;;;-2.09;82.73
76229;BME280;65021;53.174;18.160;2023-02-03T03:58:23;101430.39;;;-2.11;82.85
76229;BME280;65021;53.174;18.160;2023-02-03T04:00:55;101425.95;;;-2.10;82.69
76229;BME280;65021;53.174;18.160;2023-02-03T04:03:37;101419.79;;;-2.06;82.72
76229;BME280;65021;53.174;18.160;2023-02-03T04:06:05;101421.98;;;-1.99;82.54
76229;BME280;65021;53.174;18.160;2023-02-03T04:08:32;101413.12;;;-1.92;82.46
76229;BME280;65021;53.174;18.160;2023-02-03T04:10:58;101410.23;;;-1.83;82.45
76229;BME280;65021;53.174;18.160;2023-02-03T04:13:25;101406.77;;;-1.77;82.36
76229;BME280;65021;53.174;18.160;2023-02-03T04:15:51;101405.67;;;-1.75;82.27
76229;BME280;65021;53.174;18.160;2023-02-03T04:18:18;101399.40;;;-1.76;82.27
76229;BME280;65021;53.174;18.160;2023-02-03T04:20:44;101396.98;;;-1.81;82.24
76229;BME280;65021;53.174;18.160;2023-02-03T04:23:11;101388.45;;;-1.85;82.42
76229;BME280;65021;53.174;18.160;2023-02-03T04:25:38;101386.10;;;-1.85;82.50
76229;BME280;65021;53.174;18.160;2023-02-03T04:28:04;101378.80;;;-1.88;82.52
76229;BME280;65021;53.174;18.160;2023-02-03T04:30:32;101373.96;;;-1.91;82.63
76229;BME280;65021;53.174;18.160;2023-02-03T04:32:58;101369.05;;;-1.92;82.66
76229;BME280;65021;53.174;18.160;2023-02-03T04:35:25;101368.96;;;-1.93;82.52
76229;BME280;65021;53.174;18.160;2023-02-03T04:37:52;101362.66;;;-1.92;82.49
76229;BME280;65021;53.174;18.160;2023-02-03T04:40:18;101359.53;;;-1.90;82.40
76229;BME280;65021;53.174;18.160;2023-02-03T04:42:45;101360.67;;;-1.87;82.34
76229;BME280;65021;53.174;18.160;2023-02-03T04:45:12;101355.41;;;-1.83;82.35
76229;BME280;65021;53.174;18.160;2023-02-03T04:47:39;101350.52;;;-1.81;82.42
76229;BME280;65021;53.174;18.160;2023-02-03T04:50:06;101350.06;;;-1.81;82.48
76229;BME280;65021;53.174;18.160;2023-02-03T04:52:33;101347.73;;;-1.79;82.55
76229;BME280;65021;53.174;18.160;2023-02-03T04:54:59;101349.98;;;-1.79;82.48
76229;BME280;65021;53.174;18.160;2023-02-03T04:57:26;101344.01;;;-1.80;82.59
76229;BME280;65021;53.174;18.160;2023-02-03T04:59:52;101337.90;;;-1.79;82.56
76229;BME280;65021;53.174;18.160;2023-02-03T05:02:19;101335.42;;;-1.78;82.57
76229;BME280;65021;53.174;18.160;2023-02-03T05:04:46;101329.78;;;-1.76;82.49
76229;BME280;65021;53.174;18.160;2023-02-03T05:07:12;101325.00;;;-1.72;82.47
76229;BME280;65021;53.174;18.160;2023-02-03T05:09:39;101315.70;;;-1.68;82.47
76229;BME280;65021;53.174;18.160;2023-02-03T05:12:05;101308.77;;;-1.64;82.47
76229;BME280;65021;53.174;18.160;2023-02-03T05:14:32;101307.23;;;-1.63;82.48
76229;BME280;65021;53.174;18.160;2023-02-03T05:16:58;101304.69;;;-1.63;82.56
76229;BME280;65021;53.174;18.160;2023-02-03T05:19:25;101306.86;;;-1.63;82.70
76229;BME280;65021;53.174;18.160;2023-02-03T05:21:52;101299.73;;;-1.65;82.70
76229;BME280;65021;53.174;18.160;2023-02-03T05:24:18;101296.36;;;-1.67;82.84
76229;BME280;65021;53.174;18.160;2023-02-03T05:26:45;101284.37;;;-1.70;82.83
76229;BME280;65021;53.174;18.160;2023-02-03T05:29:19;101275.21;;;-1.73;82.93
76229;BME280;65021;53.174;18.160;2023-02-03T05:31:46;101262.08;;;-1.76;82.94
76229;BME280;65021;53.174;18.160;2023-02-03T05:34:12;101258.28;;;-1.77;82.97
76229;BME280;65021;53.174;18.160;2023-02-03T05:36:39;101253.27;;;-1.75;82.91
76229;BME280;65021;53.174;18.160;2023-02-03T05:39:06;101253.60;;;-1.72;82.78
76229;BME280;65021;53.174;18.160;2023-02-03T05:41:32;101251.70;;;-1.67;82.78
76229;BME280;65021;53.174;18.160;2023-02-03T05:44:26;101240.81;;;-1.62;82.79
76229;BME280;65021;53.174;18.160;2023-02-03T05:46:56;101230.64;;;-1.57;82.82
76229;BME280;65021;53.174;18.160;2023-02-03T05:49:23;101224.80;;;-1.52;82.78
76229;BME280;65021;53.174;18.160;2023-02-03T05:51:53;101217.93;;;-1.50;82.69
76229;BME280;65021;53.174;18.160;2023-02-03T05:54:20;101213.61;;;-1.49;82.86
76229;BME280;65021;53.174;18.160;2023-02-03T05:56:47;101211.08;;;-1.51;82.98
76229;BME280;65021;53.174;18.160;2023-02-03T05:59:14;101205.51;;;-1.53;82.79
76229;BME280;65021;53.174;18.160;2023-02-03T06:01:41;101199.00;;;-1.55;82.87
76229;BME280;65021;53.174;18.160;2023-02-03T06:04:07;101188.90;;;-1.59;82.91
76229;BME280;65021;53.174;18.160;2023-02-03T06:06:34;101187.73;;;-1.64;82.96
76229;BME280;65021;53.174;18.160;2023-02-03T06:09:06;101179.53;;;-1.63;82.89
76229;BME280;65021;53.174;18.160;2023-02-03T06:11:33;101177.98;;;-1.62;82.97
76229;BME280;65021;53.174;18.160;2023-02-03T06:14:01;101173.05;;;-1.60;82.92
76229;BME280;65021;53.174;18.160;2023-02-03T06:16:28;101167.49;;;-1.59;82.81
76229;BME280;65021;53.174;18.160;2023-02-03T06:18:55;101163.36;;;-1.58;82.76
76229;BME280;65021;53.174;18.160;2023-02-03T06:21:26;101162.73;;;-1.56;82.92
76229;BME280;65021;53.174;18.160;2023-02-03T06:23:52;101154.77;;;-1.52;82.93
76229;BME280;65021;53.174;18.160;2023-02-03T06:26:21;101149.66;;;-1.49;82.88
76229;BME280;65021;53.174;18.160;2023-02-03T06:28:48;101144.48;;;-1.44;82.95
76229;BME280;65021;53.174;18.160;2023-02-03T06:31:15;101140.85;;;-1.43;83.08
76229;BME280;65021;53.174;18.160;2023-02-03T06:33:41;101136.10;;;-1.39;82.95
76229;BME280;65021;53.174;18.160;2023-02-03T06:36:08;101129.50;;;-1.39;83.12
76229;BME280;65021;53.174;18.160;2023-02-03T06:38:35;101118.16;;;-1.36;83.00
76229;BME280;65021;53.174;18.160;2023-02-03T06:41:02;101116.58;;;-1.34;83.07
76229;BME280;65021;53.174;18.160;2023-02-03T06:43:29;101108.74;;;-1.32;83.13
76229;BME280;65021;53.174;18.160;2023-02-03T06:45:55;101103.30;;;-1.30;83.14
76229;BME280;65021;53.174;18.160;2023-02-03T06:48:22;101094.38;;;-1.28;83.14
76229;BME280;65021;53.174;18.160;2023-02-03T06:50:49;101088.67;;;-1.25;83.24
76229;BME280;65021;53.174;18.160;2023-02-03T06:53:16;101077.06;;;-1.22;83.40
76229;BME280;65021;53.174;18.160;2023-02-03T06:55:43;101072.40;;;-1.20;83.32
76229;BME280;65021;53.174;18.160;2023-02-03T06:58:10;101069.27;;;-1.18;83.34
76229;BME280;65021;53.174;18.160;2023-02-03T07:00:55;101061.59;;;-1.14;83.26
76229;BME280;65021;53.174;18.160;2023-02-03T07:03:22;101053.78;;;-1.09;83.24
76229;BME280;65021;53.174;18.160;2023-02-03T07:05:48;101051.62;;;-1.02;83.15
76229;BME280;65021;53.174;18.160;2023-02-03T07:08:15;101046.92;;;-0.98;83.14
76229;BME280;65021;53.174;18.160;2023-02-03T07:10:42;101044.42;;;-0.95;83.33
76229;BME280;65021;53.174;18.160;2023-02-03T07:13:08;101033.16;;;-0.94;83.44
76229;BME280;65021;53.174;18.160;2023-02-03T07:15:35;101026.45;;;-0.92;83.36
76229;BME280;65021;53.174;18.160;2023-02-03T07:18:02;101019.91;;;-0.90;83.54
76229;BME280;65021;53.174;18.160;2023-02-03T07:20:29;101011.36;;;-0.85;83.38
76229;BME280;65021;53.174;18.160;2023-02-03T07:22:57;101008.02;;;-0.78;83.34
76229;BME280;65021;53.174;18.160;2023-02-03T07:25:24;101002.22;;;-0.69;83.33
76229;BME280;65021;53.174;18.160;2023-02-03T07:27:51;100990.34;;;-0.60;83.24
76229;BME280;65021;53.174;18.160;2023-02-03T07:30:18;100981.19;;;-0.53;83.38
76229;BME280;65021;53.174;18.160;2023-02-03T07:32:46;100981.91;;;-0.43;83.39
76229;BME280;65021;53.174;18.160;2023-02-03T07:35:13;100979.04;;;-0.37;83.29
76229;BME280;65021;53.174;18.160;2023-02-03T07:37:41;100969.83;;;-0.34;83.33
76229;BME280;65021;53.174;18.160;2023-02-03T07:40:09;100968.46;;;-0.32;83.32
76229;BME280;65021;53.174;18.160;2023-02-03T07:42:43;100961.08;;;-0.30;83.31
76229;BME280;65021;53.174;18.160;2023-02-03T07:45:13;100958.55;;;-0.23;83.32
76229;BME280;65021;53.174;18.160;2023-02-03T07:47:42;100954.55;;;-0.14;83.27
76229;BME280;65021;53.174;18.160;2023-02-03T07:50:10;100949.14;;;-0.08;83.32
76229;BME280;65021;53.174;18.160;2023-02-03T07:52:37;100938.08;;;-0.07;83.40
76229;BME280;65021;53.174;18.160;2023-02-03T07:55:04;100929.51;;;-0.05;83.47
76229;BME280;65021;53.174;18.160;2023-02-03T07:57:31;100919.02;;;-0.06;83.40
76229;BME280;65021;53.174;18.160;2023-02-03T07:59:57;100913.36;;;-0.09;83.53
76229;BME280;65021;53.174;18.160;2023-02-03T08:02:24;100905.02;;;-0.09;83.54
76229;BME280;65021;53.174;18.160;2023-02-03T08:04:50;100900.20;;;-0.05;83.55
76229;BME280;65021;53.174;18.160;2023-02-03T08:07:17;100894.83;;;-0.01;83.37
76229;BME280;65021;53.174;18.160;2023-02-03T08:09:44;100887.59;;;0.02;83.62
76229;BME280;65021;53.174;18.160;2023-02-03T08:12:10;100884.88;;;0.06;83.61
76229;BME280;65021;53.174;18.160;2023-02-03T08:14:37;100876.33;;;0.06;83.79
76229;BME280;65021;53.174;18.160;2023-02-03T08:17:03;100866.90;;;0.07;83.72
76229;BME280;65021;53.174;18.160;2023-02-03T08:19:30;100857.30;;;0.08;83.70
76229;BME280;65021;53.174;18.160;2023-02-03T08:21:57;100848.46;;;0.06;83.76
76229;BME280;65021;53.174;18.160;2023-02-03T08:24:24;100831.61;;;0.08;83.76
76229;BME280;65021;53.174;18.160;2023-02-03T08:26:51;100826.61;;;0.12;83.78
76229;BME280;65021;53.174;18.160;2023-02-03T08:29:19;100819.81;;;0.17;83.73
76229;BME280;65021;53.174;18.160;2023-02-03T08:31:46;100813.45;;;0.22;83.85
76229;BME280;65021;53.174;18.160;2023-02-03T08:34:12;100806.66;;;0.25;83.78
76229;BME280;65021;53.174;18.160;2023-02-03T08:36:39;100799.39;;;0.25;83.77
76229;BME280;65021;53.174;18.160;2023-02-03T08:39:06;100790.79;;;0.24;83.88
76229;BME280;65021;53.174;18.160;2023-02-03T08:41:32;100783.30;;;0.24;83.98
76229;BME280;65021;53.174;18.160;2023-02-03T08:44:00;100775.59;;;0.28;83.93
76229;BME280;65021;53.174;18.160;2023-02-03T08:46:27;100763.89;;;0.35;83.93
76229;BME280;65021;53.174;18.160;2023-02-03T08:48:54;100759.66;;;0.40;83.87
76229;BME280;65021;53.174;18.160;2023-02-03T08:51:21;100750.61;;;0.43;83.87
76229;BME280;65021;53.174;18.160;2023-02-03T08:53:49;100740.96;;;0.44;83.95
76229;BME280;65021;53.174;18.160;2023-02-03T08:56:16;100733.72;;;0.45;83.98
76229;BME280;65021;53.174;18.160;2023-02-03T08:58:43;100727.29;;;0.44;83.96
76229;BME280;65021;53.174;18.160;2023-02-03T09:01:12;100719.48;;;0.42;84.00
76229;BME280;65021;53.174;18.160;2023-02-03T09:03:40;100710.05;;;0.46;84.07
76229;BME280;65021;53.174;18.160;2023-02-03T09:06:08;100700.27;;;0.52;84.12
76229;BME280;65021;53.174;18.160;2023-02-03T09:08:36;100693.28;;;0.58;84.07
76229;BME280;65021;53.174;18.160;2023-02-03T09:11:11;100678.46;;;0.63;84.03
76229;BME280;65021;53.174;18.160;2023-02-03T09:13:38;100670.75;;;0.70;84.03
76229;BME280;65021;53.174;18.160;2023-02-03T09:16:06;100657.39;;;0.77;84.08
76229;BME280;65021;53.174;18.160;2023-02-03T09:18:33;100649.84;;;0.77;84.00
76229;BME280;65021;53.174;18.160;2023-02-03T09:21:01;100642.04;;;0.74;84.08
76229;BME280;65021;53.174;18.160;2023-02-03T09:23:28;100634.85;;;0.70;84.05
76229;BME280;65021;53.174;18.160;2023-02-03T09:25:55;100623.42;;;0.68;84.21
76229;BME280;65021;53.174;18.160;2023-02-03T09:28:22;100621.16;;;0.69;84.25
76229;BME280;65021;53.174;18.160;2023-02-03T09:30:48;100612.83;;;0.68;84.19
76229;BME280;65021;53.174;18.160;2023-02-03T09:33:15;100602.09;;;0.68;84.27
76229;BME280;65021;53.174;18.160;2023-02-03T09:35:41;100597.48;;;0.70;84.20
76229;BME280;65021;53.174;18.160;2023-02-03T09:38:08;100586.89;;;0.70;84.22
76229;BME280;65021;53.174;18.160;2023-02-03T09:40:35;100578.42;;;0.72;84.28
76229;BME280;65021;53.174;18.160;2023-02-03T09:43:12;100572.31;;;0.72;84.27
76229;BME280;65021;53.174;18.160;2023-02-03T09:45:42;100561.52;;;0.70;84.31
76229;BME280;65021;53.174;18.160;2023-02-03T09:48:21;100555.19;;;0.68;84.38
76229;BME280;65021;53.174;18.160;2023-02-03T09:50:50;100547.95;;;0.69;84.38
76229;BME280;65021;53.174;18.160;2023-02-03T09:53:32;100541.75;;;0.71;84.38
76229;BME280;65021;53.174;18.160;2023-02-03T09:56:02;100532.59;;;0.73;84.43
76229;BME280;65021;53.174;18.160;2023-02-03T09:58:34;100523.30;;;0.72;84.43
76229;BME280;65021;53.174;18.160;2023-02-03T10:01:03;100516.73;;;0.68;84.56
76229;BME280;65021;53.174;18.160;2023-02-03T10:03:42;100507.09;;;0.63;84.57
76229;BME280;65021;53.174;18.160;2023-02-03T10:12:07;100471.81;;;0.55;84.86
76229;BME280;65021;53.174;18.160;2023-02-03T10:20:01;100436.28;;;0.46;85.22
76229;BME280;65021;53.174;18.160;2023-02-03T10:22:31;100424.94;;;0.42;85.17
76229;BME280;65021;53.174;18.160;2023-02-03T10:27:32;100405.70;;;0.41;85.29
76229;BME280;65021;53.174;18.160;2023-02-03T10:32:48;100380.55;;;0.36;85.82
76229;BME280;65021;53.174;18.160;2023-02-03T10:35:15;100371.31;;;0.39;85.80
76229;BME280;65021;53.174;18.160;2023-02-03T10:37:44;100362.98;;;0.44;85.69
76229;BME280;65021;53.174;18.160;2023-02-03T10:40:14;100352.45;;;0.53;85.50
76229;BME280;65021;53.174;18.160;2023-02-03T10:42:43;100339.11;;;0.64;85.44
76229;BME280;65021;53.174;18.160;2023-02-03T10:45:35;100324.63;;;0.74;85.24
76229;BME280;65021;53.174;18.160;2023-02-03T10:48:04;100315.34;;;0.79;85.16
76229;BME280;65021;53.174;18.160;2023-02-03T10:50:33;100309.82;;;0.82;85.21
76229;BME280;65021;53.174;18.160;2023-02-03T10:53:24;100306.68;;;0.81;85.24
76229;BME280;65021;53.174;18.160;2023-02-03T10:58:29;100280.34;;;0.82;85.23
76229;BME280;65021;53.174;18.160;2023-02-03T11:01:03;100273.65;;;0.85;85.21
76229;BME280;65021;53.174;18.160;2023-02-03T11:03:31;100262.15;;;0.88;85.23
76229;BME280;65021;53.174;18.160;2023-02-03T11:06:04;100255.95;;;0.92;85.20
76229;BME280;65021;53.174;18.160;2023-02-03T11:08:32;100242.12;;;0.99;85.10
76229;BME280;65021;53.174;18.160;2023-02-03T11:11:06;100232.36;;;1.00;85.11
76229;BME280;65021;53.174;18.160;2023-02-03T11:13:33;100222.98;;;1.01;85.14
76229;BME280;65021;53.174;18.160;2023-02-03T11:16:14;100211.34;;;0.98;85.03
76229;BME280;65021;53.174;18.160;2023-02-03T11:26:14;100166.55;;;0.93;85.15
76229;BME280;65021;53.174;18.160;2023-02-03T11:28:45;100159.81;;;0.86;85.31
76229;BME280;65021;53.174;18.160;2023-02-03T11:31:17;100148.58;;;0.81;85.37
76229;BME280;65021;53.174;18.160;2023-02-03T11:33:48;100139.08;;;0.76;85.51
76229;BME280;65021;53.174;18.160;2023-02-03T11:36:17;100132.97;;;0.70;85.59
76229;BME280;65021;53.174;18.160;2023-02-03T11:38:44;100124.36;;;0.67;85.62
76229;BME280;65021;53.174;18.160;2023-02-03T11:41:16;100120.80;;;0.63;85.60
76229;BME280;65021;53.174;18.160;2023-02-03T11:43:43;100109.37;;;0.60;85.62
76229;BME280;65021;53.174;18.160;2023-02-03T11:46:10;100103.05;;;0.58;85.66
76229;BME280;65021;53.174;18.160;2023-02-03T11:48:45;100090.70;;;0.54;85.74
76229;BME280;65021;53.174;18.160;2023-02-03T12:17:05;100007.23;;;0.47;86.00
76229;BME280;65021;53.174;18.160;2023-02-03T12:22:20;99998.13;;;0.51;85.91
76229;BME280;65021;53.174;18.160;2023-02-03T12:25:14;99990.63;;;0.55;85.92
76229;BME280;65021;53.174;18.160;2023-02-03T12:30:24;99972.11;;;0.59;85.92
76229;BME280;65021;53.174;18.160;2023-02-03T12:32:56;99969.41;;;0.59;85.98
76229;BME280;65021;53.174;18.160;2023-02-03T12:35:31;99957.98;;;0.60;85.90
76229;BME280;65021;53.174;18.160;2023-02-03T12:38:04;99953.35;;;0.61;85.96
76229;BME280;65021;53.174;18.160;2023-02-03T12:40:39;99949.63;;;0.64;85.83
76229;BME280;65021;53.174;18.160;2023-02-03T12:45:41;99937.99;;;0.70;85.81
76229;BME280;65021;53.174;18.160;2023-02-03T12:48:17;99933.41;;;0.72;85.80
76229;BME280;65021;53.174;18.160;2023-02-03T12:50:50;99929.48;;;0.74;85.83
76229;BME280;65021;53.174;18.160;2023-02-03T12:53:27;99918.33;;;0.74;85.85
76229;BME280;65021;53.174;18.160;2023-02-03T12:56:11;99915.77;;;0.75;85.86
76229;BME280;65021;53.174;18.160;2023-02-03T12:58:48;99908.86;;;0.75;85.84
76229;BME280;65021;53.174;18.160;2023-02-03T13:01:21;99911.98;;;0.75;85.79
76229;BME280;65021;53.174;18.160;2023-02-03T13:04:32;99913.17;;;0.76;85.85
76229;BME280;65021;53.174;18.160;2023-02-03T13:07:10;99908.58;;;0.77;85.83
76229;BME280;65021;53.174;18.160;2023-02-03T13:09:50;99899.62;;;0.77;85.79
76229;BME280;65021;53.174;18.160;2023-02-03T13:17:36;99888.41;;;0.83;85.79
76229;BME280;65021;53.174;18.160;2023-02-03T13:22:41;99884.98;;;0.91;85.71
76229;BME280;65021;53.174;18.160;2023-02-03T13:25:16;99886.89;;;0.96;85.67
76229;BME280;65021;53.174;18.160;2023-02-03T13:28:05;99877.14;;;1.02;85.67
76229;BME280;65021;53.174;18.160;2023-02-03T13:33:45;99865.26;;;1.12;85.51
76229;BME280;65021;53.174;18.160;2023-02-03T13:38:53;99857.45;;;1.22;85.45
76229;BME280;65021;53.174;18.160;2023-02-03T13:41:41;99852.90;;;1.31;85.51
76229;BME280;65021;53.174;18.160;2023-02-03T13:44:12;99841.61;;;1.33;85.45
76229;BME280;65021;53.174;18.160;2023-02-03T13:46:41;99830.11;;;1.29;85.45
76229;BME280;65021;53.174;18.160;2023-02-03T13:49:08;99825.95;;;1.22;85.52
76229;BME280;65021;53.174;18.160;2023-02-03T13:51:41;99826.99;;;1.19;85.62
76229;BME280;65021;53.174;18.160;2023-02-03T13:54:34;99833.39;;;1.17;85.59
76229;BME280;65021;53.174;18.160;2023-02-03T13:57:20;99839.98;;;1.03;85.77
76229;BME280;65021;53.174;18.160;2023-02-03T13:59:47;99846.95;;;0.93;85.96
76229;BME280;65021;53.174;18.160;2023-02-03T14:17:53;99836.84;;;1.25;85.65
76229;BME280;65021;53.174;18.160;2023-02-03T14:22:56;99836.57;;;1.41;85.61
76229;BME280;65021;53.174;18.160;2023-02-03T14:25:25;99839.17;;;1.40;85.40
76229;BME280;65021;53.174;18.160;2023-02-03T14:28:04;99838.08;;;1.40;85.54
76229;BME280;65021;53.174;18.160;2023-02-03T14:33:49;99845.76;;;1.44;85.57
76229;BME280;65021;53.174;18.160;2023-02-03T14:41:57;99849.02;;;1.48;85.52
76229;BME280;65021;53.174;18.160;2023-02-03T14:45:10;99852.45;;;1.51;85.48
76229;BME280;65021;53.174;18.160;2023-02-03T14:47:50;99853.30;;;1.57;85.41
76229;BME280;65021;53.174;18.160;2023-02-03T14:53:44;99859.53;;;1.61;85.27
76229;BME280;65021;53.174;18.160;2023-02-03T14:58:47;99859.87;;;1.52;85.24
76229;BME280;65021;53.174;18.160;2023-02-03T15:06:43;99869.67;;;1.39;85.49
76229;BME280;65021;53.174;18.160;2023-02-03T15:09:49;99872.83;;;1.36;85.35
76229;BME280;65021;53.174;18.160;2023-02-03T15:12:18;99875.45;;;1.34;85.46
76229;BME280;65021;53.174;18.160;2023-02-03T15:14:45;99879.61;;;1.33;85.47
76229;BME280;65021;53.174;18.160;2023-02-03T15:17:21;99879.60;;;1.29;85.41
76229;BME280;65021;53.174;18.160;2023-02-03T15:19:49;99879.77;;;1.28;85.52